Aeroporto :
LOGIN :

Iscrizione | Disclaimer

   EN    FR    IT 

 










Sommario :    VFR   VFR Marginale   IFR   IFR Intensivo   IFR Molto Intensivo
Visibilità : 
Base nubi : 
>= 8 km
>= 3000ft
5 / 8 km
1000 / 3000 ft
1500m / 5 km
500 / 1000 ft
800 / 1500m
200 / 500 ft
< 800m
< 200 ft
Simboli :   Temporali  Nebbia  Neve Forte  Precipitazioni Forti  Vento > 20 kt
SIGMETs :   Varie  Temporali  Ghiacco  Turbolenza  Onda orograficha  Ceneri Vulcaniche







- Altitudine del aeroporto : 1895 ft


LSMM - Meiringen

ULTIMO METAR :
  • 211620Z AUTO 10011KT 070V130 9999NDV FEW140 19/M03 Q1015 RMK

METARs OBSOLETI :
  • 211550Z AUTO 10010KT 9999NDV FEW140 19/M00 Q1015 RMK
  • 211520Z AUTO 10011KT 070V140 9999NDV FEW150 19/M01 Q1015 RMK
  • 211450Z AUTO 10011KT 070V130 9999NDV NCD 19/M02 Q1015 RMK
  • 211420Z AUTO 10014KT 9999NDV NCD 20/M03 Q1016 RMK
  • 211350Z AUTO 11014G25KT 9999NDV NCD 20/M00 Q1016 RMK

Previsioni scadute.
Nessun NOTAM noto per questo aeroporto.



MetMap, La meteo Aeronautica in un colpo d'occhio ! - Copyright ORBIFLY Dicembre 2007 - Disclaimer

ORBIFLY MET'MAP TEAM :

Programmazione e sviluppo : Alexandra Zaïnal
Concezione e sviluppo : Baudouin d'Aumeries
Co-Programmazione e sviluppo : Marc-Olivier Méhu
Supporto tecnico e logistico : Manuel Goepfert
Aiuto per la traduzione : Arnaldo La Scala

Contatto : metmap@orbifly.com




FONTI E CREDITI :

   NOAA